sensor_id;sensor_type;location;lat;lon;timestamp;temperature;humidity
25732;DHT22;13585;50.864;4.406;2023-08-17T04:28:43;28.20;51.20
25732;DHT22;13585;50.864;4.406;2023-08-17T04:34:27;28.10;51.20
25732;DHT22;13585;50.864;4.406;2023-08-17T04:37:08;28.10;51.20
25732;DHT22;13585;50.864;4.406;2023-08-17T05:04:03;28.10;51.20
25732;DHT22;13585;50.864;4.406;2023-08-17T05:40:25;28.10;51.20
25732;DHT22;13585;50.864;4.406;2023-08-17T05:51:18;28.10;51.20
25732;DHT22;13585;50.864;4.406;2023-08-17T10:29:01;28.20;51.80
25732;DHT22;13585;50.864;4.406;2023-08-17T10:58:30;28.30;52.20
25732;DHT22;13585;50.864;4.406;2023-08-17T11:00:57;28.30;52.20
25732;DHT22;13585;50.864;4.406;2023-08-17T11:03:23;28.30;52.30
25732;DHT22;13585;50.864;4.406;2023-08-17T11:05:52;28.20;52.30
25732;DHT22;13585;50.864;4.406;2023-08-17T11:08:28;28.30;52.30
25732;DHT22;13585;50.864;4.406;2023-08-17T11:13:29;28.30;52.40
25732;DHT22;13585;50.864;4.406;2023-08-17T11:15:58;28.40;52.40
25732;DHT22;13585;50.864;4.406;2023-08-17T11:18:23;28.30;52.40
25732;DHT22;13585;50.864;4.406;2023-08-17T11:20:49;28.30;52.50
25732;DHT22;13585;50.864;4.406;2023-08-17T11:23:16;28.40;52.50
25732;DHT22;13585;50.864;4.406;2023-08-17T11:25:42;28.30;52.50
25732;DHT22;13585;50.864;4.406;2023-08-17T11:28:08;28.30;52.50
25732;DHT22;13585;50.864;4.406;2023-08-17T11:30:34;28.40;52.60
25732;DHT22;13585;50.864;4.406;2023-08-17T11:33:19;28.40;52.60
25732;DHT22;13585;50.864;4.406;2023-08-17T11:35:57;28.30;52.50
25732;DHT22;13585;50.864;4.406;2023-08-17T11:38:23;28.30;52.60
25732;DHT22;13585;50.864;4.406;2023-08-17T11:40:50;28.40;52.80
25732;DHT22;13585;50.864;4.406;2023-08-17T11:43:16;28.30;52.80
25732;DHT22;13585;50.864;4.406;2023-08-17T11:45:52;28.40;53.00
25732;DHT22;13585;50.864;4.406;2023-08-17T11:48:21;28.30;53.00
25732;DHT22;13585;50.864;4.406;2023-08-17T11:50:46;28.30;53.00
25732;DHT22;13585;50.864;4.406;2023-08-17T11:53:12;28.30;53.00
25732;DHT22;13585;50.864;4.406;2023-08-17T11:55:37;28.30;53.10
25732;DHT22;13585;50.864;4.406;2023-08-17T11:58:03;28.30;53.10
25732;DHT22;13585;50.864;4.406;2023-08-17T12:00:34;28.30;53.20
25732;DHT22;13585;50.864;4.406;2023-08-17T12:06:09;28.30;53.20
25732;DHT22;13585;50.864;4.406;2023-08-17T12:08:47;28.30;53.30
25732;DHT22;13585;50.864;4.406;2023-08-17T12:11:13;28.30;53.30
25732;DHT22;13585;50.864;4.406;2023-08-17T12:13:38;28.30;53.40
25732;DHT22;13585;50.864;4.406;2023-08-17T12:16:04;28.30;53.40
25732;DHT22;13585;50.864;4.406;2023-08-17T12:18:33;28.30;53.40
25732;DHT22;13585;50.864;4.406;2023-08-17T12:20:59;28.30;53.40
25732;DHT22;13585;50.864;4.406;2023-08-17T12:23:24;28.30;53.50
25732;DHT22;13585;50.864;4.406;2023-08-17T12:25:53;28.20;53.40
25732;DHT22;13585;50.864;4.406;2023-08-17T12:28:19;28.30;53.50
25732;DHT22;13585;50.864;4.406;2023-08-17T12:30:44;28.30;53.60
25732;DHT22;13585;50.864;4.406;2023-08-17T12:33:10;28.20;53.50
25732;DHT22;13585;50.864;4.406;2023-08-17T12:35:35;28.20;53.60
25732;DHT22;13585;50.864;4.406;2023-08-17T12:38:01;28.30;53.60
25732;DHT22;13585;50.864;4.406;2023-08-17T12:40:26;28.30;53.70
25732;DHT22;13585;50.864;4.406;2023-08-17T12:42:54;28.20;53.60
25732;DHT22;13585;50.864;4.406;2023-08-17T12:45:19;28.20;53.70
25732;DHT22;13585;50.864;4.406;2023-08-17T12:47:45;28.20;53.70
25732;DHT22;13585;50.864;4.406;2023-08-17T12:50:10;28.20;53.70
25732;DHT22;13585;50.864;4.406;2023-08-17T12:52:38;28.30;53.80
25732;DHT22;13585;50.864;4.406;2023-08-17T12:55:07;28.30;53.80
25732;DHT22;13585;50.864;4.406;2023-08-17T12:57:32;28.20;53.80
25732;DHT22;13585;50.864;4.406;2023-08-17T12:59:59;28.20;53.90
25732;DHT22;13585;50.864;4.406;2023-08-17T13:02:25;28.20;53.90
25732;DHT22;13585;50.864;4.406;2023-08-17T13:04:50;28.30;54.00
25732;DHT22;13585;50.864;4.406;2023-08-17T13:07:16;28.30;54.00
25732;DHT22;13585;50.864;4.406;2023-08-17T13:09:42;28.30;54.00
25732;DHT22;13585;50.864;4.406;2023-08-17T13:12:08;28.20;54.00
25732;DHT22;13585;50.864;4.406;2023-08-17T13:14:33;28.20;54.00
25732;DHT22;13585;50.864;4.406;2023-08-17T13:16:58;28.20;54.00
25732;DHT22;13585;50.864;4.406;2023-08-17T13:19:24;28.20;54.00
25732;DHT22;13585;50.864;4.406;2023-08-17T13:21:49;28.30;54.00
25732;DHT22;13585;50.864;4.406;2023-08-17T13:24:15;28.30;54.10
25732;DHT22;13585;50.864;4.406;2023-08-17T13:26:40;28.20;54.00
25732;DHT22;13585;50.864;4.406;2023-08-17T13:29:06;28.20;54.00
25732;DHT22;13585;50.864;4.406;2023-08-17T13:31:31;28.30;54.10
25732;DHT22;13585;50.864;4.406;2023-08-17T13:33:57;28.30;54.10
25732;DHT22;13585;50.864;4.406;2023-08-17T13:36:23;28.20;54.00
25732;DHT22;13585;50.864;4.406;2023-08-17T13:38:48;28.20;54.10
25732;DHT22;13585;50.864;4.406;2023-08-17T13:41:14;28.20;54.10
25732;DHT22;13585;50.864;4.406;2023-08-17T13:43:39;28.20;54.10
25732;DHT22;13585;50.864;4.406;2023-08-17T13:46:05;28.20;54.10
25732;DHT22;13585;50.864;4.406;2023-08-17T13:48:30;28.20;54.20
25732;DHT22;13585;50.864;4.406;2023-08-17T13:50:56;28.30;54.20
25732;DHT22;13585;50.864;4.406;2023-08-17T13:53:22;28.20;54.10
25732;DHT22;13585;50.864;4.406;2023-08-17T13:55:47;28.20;54.20
25732;DHT22;13585;50.864;4.406;2023-08-17T13:58:13;28.30;54.20
25732;DHT22;13585;50.864;4.406;2023-08-17T14:00:39;28.30;54.20
25732;DHT22;13585;50.864;4.406;2023-08-17T14:03:06;28.30;54.30
25732;DHT22;13585;50.864;4.406;2023-08-17T14:05:32;28.30;54.30
25732;DHT22;13585;50.864;4.406;2023-08-17T14:08:01;28.30;54.30
25732;DHT22;13585;50.864;4.406;2023-08-17T14:10:28;28.30;54.20
25732;DHT22;13585;50.864;4.406;2023-08-17T14:12:53;28.30;54.30
25732;DHT22;13585;50.864;4.406;2023-08-17T14:15:19;28.30;54.20
25732;DHT22;13585;50.864;4.406;2023-08-17T14:17:44;28.30;54.20
25732;DHT22;13585;50.864;4.406;2023-08-17T14:20:10;28.30;54.20
25732;DHT22;13585;50.864;4.406;2023-08-17T14:22:36;28.30;54.20
25732;DHT22;13585;50.864;4.406;2023-08-17T14:25:01;28.30;54.10
25732;DHT22;13585;50.864;4.406;2023-08-17T14:27:28;28.30;54.10
25732;DHT22;13585;50.864;4.406;2023-08-17T14:29:54;28.30;54.20
25732;DHT22;13585;50.864;4.406;2023-08-17T14:32:19;28.30;54.20
25732;DHT22;13585;50.864;4.406;2023-08-17T14:34:44;28.30;54.30
25732;DHT22;13585;50.864;4.406;2023-08-17T14:37:10;28.30;54.30
25732;DHT22;13585;50.864;4.406;2023-08-17T14:39:35;28.30;54.30
25732;DHT22;13585;50.864;4.406;2023-08-17T14:42:01;28.30;54.40
25732;DHT22;13585;50.864;4.406;2023-08-17T14:44:27;28.30;54.40
25732;DHT22;13585;50.864;4.406;2023-08-17T14:46:52;28.30;54.50
25732;DHT22;13585;50.864;4.406;2023-08-17T14:49:18;28.30;54.50
25732;DHT22;13585;50.864;4.406;2023-08-17T14:51:43;28.30;54.60
25732;DHT22;13585;50.864;4.406;2023-08-17T14:54:10;28.30;54.60
25732;DHT22;13585;50.864;4.406;2023-08-17T14:56:37;28.30;54.70
25732;DHT22;13585;50.864;4.406;2023-08-17T14:59:02;28.30;54.70
25732;DHT22;13585;50.864;4.406;2023-08-17T15:01:28;28.30;54.70
25732;DHT22;13585;50.864;4.406;2023-08-17T15:03:55;28.20;54.70
25732;DHT22;13585;50.864;4.406;2023-08-17T15:06:20;28.20;54.70
25732;DHT22;13585;50.864;4.406;2023-08-17T15:08:50;28.20;54.80
25732;DHT22;13585;50.864;4.406;2023-08-17T15:11:15;28.20;54.80
25732;DHT22;13585;50.864;4.406;2023-08-17T15:13:41;28.20;54.80
25732;DHT22;13585;50.864;4.406;2023-08-17T15:16:06;28.20;55.50
25732;DHT22;13585;50.864;4.406;2023-08-17T15:18:32;28.20;54.90
25732;DHT22;13585;50.864;4.406;2023-08-17T15:20:58;28.20;54.90
25732;DHT22;13585;50.864;4.406;2023-08-17T15:23:23;28.10;55.50
25732;DHT22;13585;50.864;4.406;2023-08-17T15:25:49;28.10;54.90
25732;DHT22;13585;50.864;4.406;2023-08-17T15:28:14;28.10;55.00
25732;DHT22;13585;50.864;4.406;2023-08-17T15:30:40;28.10;55.00
25732;DHT22;13585;50.864;4.406;2023-08-17T15:33:06;28.10;55.00
25732;DHT22;13585;50.864;4.406;2023-08-17T15:35:32;28.10;55.00
25732;DHT22;13585;50.864;4.406;2023-08-17T15:37:58;28.10;55.00
25732;DHT22;13585;50.864;4.406;2023-08-17T15:40:36;28.10;55.10
25732;DHT22;13585;50.864;4.406;2023-08-17T15:43:02;28.10;55.10
25732;DHT22;13585;50.864;4.406;2023-08-17T15:45:27;28.10;55.10
25732;DHT22;13585;50.864;4.406;2023-08-17T15:47:53;28.10;55.10
25732;DHT22;13585;50.864;4.406;2023-08-17T15:50:19;28.10;55.10
25732;DHT22;13585;50.864;4.406;2023-08-17T15:52:44;28.10;55.10
25732;DHT22;13585;50.864;4.406;2023-08-17T15:55:10;28.10;55.20
25732;DHT22;13585;50.864;4.406;2023-08-17T15:57:35;28.10;55.20
25732;DHT22;13585;50.864;4.406;2023-08-17T16:00:02;28.00;55.10
25732;DHT22;13585;50.864;4.406;2023-08-17T16:02:27;28.10;55.20
25732;DHT22;13585;50.864;4.406;2023-08-17T16:04:54;28.10;55.20
25732;DHT22;13585;50.864;4.406;2023-08-17T16:07:19;28.00;55.10
25732;DHT22;13585;50.864;4.406;2023-08-17T16:09:54;28.00;55.20
25732;DHT22;13585;50.864;4.406;2023-08-17T16:12:22;28.10;55.20
25732;DHT22;13585;50.864;4.406;2023-08-17T16:14:48;28.10;55.20
25732;DHT22;13585;50.864;4.406;2023-08-17T16:17:16;28.00;55.20
25732;DHT22;13585;50.864;4.406;2023-08-17T16:19:42;28.00;55.20
25732;DHT22;13585;50.864;4.406;2023-08-17T16:22:08;28.00;55.20
25732;DHT22;13585;50.864;4.406;2023-08-17T16:24:33;28.10;55.30
25732;DHT22;13585;50.864;4.406;2023-08-17T16:26:59;28.00;55.20
25732;DHT22;13585;50.864;4.406;2023-08-17T16:32:11;28.10;55.30
25732;DHT22;13585;50.864;4.406;2023-08-17T16:34:37;28.10;55.40
25732;DHT22;13585;50.864;4.406;2023-08-17T16:37:04;28.10;55.40
25732;DHT22;13585;50.864;4.406;2023-08-17T16:39:30;28.10;55.40
25732;DHT22;13585;50.864;4.406;2023-08-17T16:41:58;28.10;55.40
25732;DHT22;13585;50.864;4.406;2023-08-17T16:44:24;28.10;55.40
25732;DHT22;13585;50.864;4.406;2023-08-17T16:46:49;28.10;55.30
25732;DHT22;13585;50.864;4.406;2023-08-17T16:49:18;28.10;55.30
25732;DHT22;13585;50.864;4.406;2023-08-17T16:51:43;28.10;55.30
25732;DHT22;13585;50.864;4.406;2023-08-17T16:54:09;28.10;55.40
25732;DHT22;13585;50.864;4.406;2023-08-17T16:56:36;28.10;55.40
25732;DHT22;13585;50.864;4.406;2023-08-17T16:59:04;28.00;55.40
25732;DHT22;13585;50.864;4.406;2023-08-17T17:01:31;28.10;55.50
25732;DHT22;13585;50.864;4.406;2023-08-17T17:04:42;28.10;55.40
25732;DHT22;13585;50.864;4.406;2023-08-17T17:10:18;28.00;55.40
25732;DHT22;13585;50.864;4.406;2023-08-17T17:12:47;28.00;55.50
25732;DHT22;13585;50.864;4.406;2023-08-17T17:15:13;28.00;55.50
25732;DHT22;13585;50.864;4.406;2023-08-17T17:17:39;28.00;55.50
25732;DHT22;13585;50.864;4.406;2023-08-17T17:20:04;28.00;55.50
25732;DHT22;13585;50.864;4.406;2023-08-17T17:22:30;28.00;55.50
25732;DHT22;13585;50.864;4.406;2023-08-17T17:24:56;28.00;55.50
25732;DHT22;13585;50.864;4.406;2023-08-17T17:27:21;28.10;55.60
25732;DHT22;13585;50.864;4.406;2023-08-17T17:29:47;28.10;55.60
25732;DHT22;13585;50.864;4.406;2023-08-17T17:32:13;28.10;55.70
25732;DHT22;13585;50.864;4.406;2023-08-17T17:34:39;28.00;55.60
25732;DHT22;13585;50.864;4.406;2023-08-17T17:37:04;28.00;55.60
25732;DHT22;13585;50.864;4.406;2023-08-17T17:39:30;28.00;55.60
25732;DHT22;13585;50.864;4.406;2023-08-17T17:41:55;28.00;55.60
25732;DHT22;13585;50.864;4.406;2023-08-17T17:44:22;28.00;55.60
25732;DHT22;13585;50.864;4.406;2023-08-17T17:46:47;28.00;55.60
25732;DHT22;13585;50.864;4.406;2023-08-17T17:49:13;28.00;55.60
25732;DHT22;13585;50.864;4.406;2023-08-17T17:51:38;28.00;55.70
25732;DHT22;13585;50.864;4.406;2023-08-17T17:54:04;28.00;55.70
25732;DHT22;13585;50.864;4.406;2023-08-17T17:56:39;28.00;55.70
25732;DHT22;13585;50.864;4.406;2023-08-17T17:59:05;28.00;55.70
25732;DHT22;13585;50.864;4.406;2023-08-17T18:01:31;28.00;56.30
25732;DHT22;13585;50.864;4.406;2023-08-17T18:03:56;28.00;55.70
25732;DHT22;13585;50.864;4.406;2023-08-17T18:06:22;28.00;55.70
25732;DHT22;13585;50.864;4.406;2023-08-17T18:08:48;28.00;55.70
25732;DHT22;13585;50.864;4.406;2023-08-17T18:11:13;28.00;55.80
25732;DHT22;13585;50.864;4.406;2023-08-17T18:13:39;28.00;55.80
25732;DHT22;13585;50.864;4.406;2023-08-17T18:16:04;28.00;55.80
25732;DHT22;13585;50.864;4.406;2023-08-17T18:18:30;28.00;55.80
25732;DHT22;13585;50.864;4.406;2023-08-17T18:20:58;27.90;55.80
25732;DHT22;13585;50.864;4.406;2023-08-17T18:23:24;28.00;55.90
25732;DHT22;13585;50.864;4.406;2023-08-17T18:26:02;28.00;55.90
25732;DHT22;13585;50.864;4.406;2023-08-17T18:28:28;27.90;55.90
25732;DHT22;13585;50.864;4.406;2023-08-17T18:30:54;27.90;55.90
25732;DHT22;13585;50.864;4.406;2023-08-17T18:33:19;27.90;55.90
25732;DHT22;13585;50.864;4.406;2023-08-17T18:35:48;27.90;55.90
25732;DHT22;13585;50.864;4.406;2023-08-17T18:38:13;27.90;55.90
25732;DHT22;13585;50.864;4.406;2023-08-17T18:40:39;27.90;56.00
25732;DHT22;13585;50.864;4.406;2023-08-17T18:43:04;27.90;56.00
25732;DHT22;13585;50.864;4.406;2023-08-17T18:45:30;27.90;56.00
25732;DHT22;13585;50.864;4.406;2023-08-17T18:47:55;27.90;56.00
25732;DHT22;13585;50.864;4.406;2023-08-17T18:50:21;27.90;56.00
25732;DHT22;13585;50.864;4.406;2023-08-17T18:52:46;27.90;56.00
25732;DHT22;13585;50.864;4.406;2023-08-17T18:55:12;27.90;56.10
25732;DHT22;13585;50.864;4.406;2023-08-17T18:57:38;27.90;56.10
25732;DHT22;13585;50.864;4.406;2023-08-17T19:00:04;27.80;56.00
25732;DHT22;13585;50.864;4.406;2023-08-17T19:02:30;27.90;56.10
25732;DHT22;13585;50.864;4.406;2023-08-17T19:04:56;27.90;56.10
25732;DHT22;13585;50.864;4.406;2023-08-17T19:07:23;27.90;56.10
25732;DHT22;13585;50.864;4.406;2023-08-17T19:09:50;27.80;56.10
25732;DHT22;13585;50.864;4.406;2023-08-17T19:12:16;27.90;56.10
25732;DHT22;13585;50.864;4.406;2023-08-17T19:14:42;27.80;56.20
25732;DHT22;13585;50.864;4.406;2023-08-17T19:17:08;27.80;56.10
25732;DHT22;13585;50.864;4.406;2023-08-17T19:19:38;27.80;56.20
25732;DHT22;13585;50.864;4.406;2023-08-17T19:22:03;27.80;56.20
25732;DHT22;13585;50.864;4.406;2023-08-17T19:24:29;27.80;56.20
25732;DHT22;13585;50.864;4.406;2023-08-17T19:26:54;27.80;56.20
25732;DHT22;13585;50.864;4.406;2023-08-17T19:29:20;27.80;56.20
25732;DHT22;13585;50.864;4.406;2023-08-17T19:31:45;27.80;56.20
25732;DHT22;13585;50.864;4.406;2023-08-17T19:34:11;27.80;56.20
25732;DHT22;13585;50.864;4.406;2023-08-17T19:36:36;27.80;56.20
25732;DHT22;13585;50.864;4.406;2023-08-17T19:39:03;27.80;56.20
25732;DHT22;13585;50.864;4.406;2023-08-17T19:41:29;27.80;56.30
25732;DHT22;13585;50.864;4.406;2023-08-17T19:43:54;27.70;56.30
25732;DHT22;13585;50.864;4.406;2023-08-17T19:46:20;27.80;56.40
25732;DHT22;13585;50.864;4.406;2023-08-17T19:48:45;27.80;56.40
25732;DHT22;13585;50.864;4.406;2023-08-17T19:51:11;27.80;56.40
25732;DHT22;13585;50.864;4.406;2023-08-17T19:53:37;27.70;56.30
25732;DHT22;13585;50.864;4.406;2023-08-17T19:56:02;27.70;56.30
25732;DHT22;13585;50.864;4.406;2023-08-17T19:58:28;27.70;56.30
25732;DHT22;13585;50.864;4.406;2023-08-17T20:00:53;27.80;56.40
25732;DHT22;13585;50.864;4.406;2023-08-17T20:03:19;27.80;56.40
25732;DHT22;13585;50.864;4.406;2023-08-17T20:05:45;27.80;56.50
25732;DHT22;13585;50.864;4.406;2023-08-17T20:08:11;27.80;56.50
25732;DHT22;13585;50.864;4.406;2023-08-17T20:10:37;27.70;56.50
25732;DHT22;13585;50.864;4.406;2023-08-17T20:13:02;27.70;56.50
25732;DHT22;13585;50.864;4.406;2023-08-17T20:15:28;27.80;56.50
25732;DHT22;13585;50.864;4.406;2023-08-17T20:17:53;27.70;56.50
25732;DHT22;13585;50.864;4.406;2023-08-17T20:20:20;27.70;56.50
25732;DHT22;13585;50.864;4.406;2023-08-17T20:23:06;27.70;56.60
25732;DHT22;13585;50.864;4.406;2023-08-17T20:25:31;27.70;57.30
25732;DHT22;13585;50.864;4.406;2023-08-17T20:27:58;27.70;56.60
25732;DHT22;13585;50.864;4.406;2023-08-17T20:30:24;27.70;56.70
25732;DHT22;13585;50.864;4.406;2023-08-17T20:32:49;27.70;56.70
25732;DHT22;13585;50.864;4.406;2023-08-17T20:35:15;27.70;56.70
25732;DHT22;13585;50.864;4.406;2023-08-17T20:37:40;27.70;56.70
25732;DHT22;13585;50.864;4.406;2023-08-17T20:40:11;27.70;56.70
25732;DHT22;13585;50.864;4.406;2023-08-17T20:45:36;27.80;56.90
25732;DHT22;13585;50.864;4.406;2023-08-17T20:48:02;27.70;56.80
25732;DHT22;13585;50.864;4.406;2023-08-17T20:50:46;27.70;56.80
25732;DHT22;13585;50.864;4.406;2023-08-17T20:53:12;27.70;56.90
25732;DHT22;13585;50.864;4.406;2023-08-17T20:55:45;27.70;57.00
25732;DHT22;13585;50.864;4.406;2023-08-17T20:58:14;27.70;56.90
25732;DHT22;13585;50.864;4.406;2023-08-17T21:00:52;27.70;56.90
25732;DHT22;13585;50.864;4.406;2023-08-17T21:03:19;27.70;57.00
25732;DHT22;13585;50.864;4.406;2023-08-17T21:05:44;27.70;57.00
25732;DHT22;13585;50.864;4.406;2023-08-17T21:08:10;27.70;57.00
25732;DHT22;13585;50.864;4.406;2023-08-17T21:10:38;27.80;57.10
25732;DHT22;13585;50.864;4.406;2023-08-17T21:13:03;27.70;57.00
25732;DHT22;13585;50.864;4.406;2023-08-17T21:15:29;27.70;57.00
25732;DHT22;13585;50.864;4.406;2023-08-17T21:17:54;27.70;57.00
25732;DHT22;13585;50.864;4.406;2023-08-17T21:20:20;27.70;57.00
25732;DHT22;13585;50.864;4.406;2023-08-17T21:22:46;27.70;57.10
25732;DHT22;13585;50.864;4.406;2023-08-17T21:25:15;27.70;57.10
25732;DHT22;13585;50.864;4.406;2023-08-17T21:27:43;27.70;57.10
25732;DHT22;13585;50.864;4.406;2023-08-17T21:30:09;27.70;57.10
25732;DHT22;13585;50.864;4.406;2023-08-17T21:32:35;27.70;57.10
25732;DHT22;13585;50.864;4.406;2023-08-17T21:35:00;27.70;57.10
25732;DHT22;13585;50.864;4.406;2023-08-17T21:37:26;27.70;57.20
25732;DHT22;13585;50.864;4.406;2023-08-17T21:39:52;27.70;57.20
25732;DHT22;13585;50.864;4.406;2023-08-17T21:42:18;27.70;57.20
25732;DHT22;13585;50.864;4.406;2023-08-17T21:44:44;27.70;57.30
25732;DHT22;13585;50.864;4.406;2023-08-17T21:47:10;27.70;57.30
25732;DHT22;13585;50.864;4.406;2023-08-17T21:49:35;27.70;57.30
25732;DHT22;13585;50.864;4.406;2023-08-17T21:52:01;27.70;57.30
25732;DHT22;13585;50.864;4.406;2023-08-17T21:54:26;27.70;57.30
25732;DHT22;13585;50.864;4.406;2023-08-17T21:56:52;27.70;57.40
25732;DHT22;13585;50.864;4.406;2023-08-17T21:59:17;27.70;57.40
25732;DHT22;13585;50.864;4.406;2023-08-17T22:01:43;27.70;57.40
25732;DHT22;13585;50.864;4.406;2023-08-17T22:04:08;27.70;57.40
25732;DHT22;13585;50.864;4.406;2023-08-17T22:06:34;27.70;57.40
25732;DHT22;13585;50.864;4.406;2023-08-17T22:08:59;27.70;57.40
25732;DHT22;13585;50.864;4.406;2023-08-17T22:11:25;27.70;57.40
25732;DHT22;13585;50.864;4.406;2023-08-17T22:13:50;27.70;57.50
25732;DHT22;13585;50.864;4.406;2023-08-17T22:16:16;27.70;57.50
25732;DHT22;13585;50.864;4.406;2023-08-17T22:18:41;27.70;57.50
25732;DHT22;13585;50.864;4.406;2023-08-17T22:21:07;27.70;57.50
25732;DHT22;13585;50.864;4.406;2023-08-17T22:23:32;27.70;58.10
25732;DHT22;13585;50.864;4.406;2023-08-17T22:25:58;27.70;57.50
25732;DHT22;13585;50.864;4.406;2023-08-17T22:28:23;27.70;57.50
25732;DHT22;13585;50.864;4.406;2023-08-17T22:30:49;27.70;57.50
25732;DHT22;13585;50.864;4.406;2023-08-17T22:33:14;27.70;57.50
25732;DHT22;13585;50.864;4.406;2023-08-17T22:35:40;27.70;57.50
25732;DHT22;13585;50.864;4.406;2023-08-17T22:38:05;27.70;57.50
25732;DHT22;13585;50.864;4.406;2023-08-17T22:40:31;27.70;57.50
25732;DHT22;13585;50.864;4.406;2023-08-17T22:42:56;27.70;57.50
25732;DHT22;13585;50.864;4.406;2023-08-17T22:45:22;27.70;57.50
25732;DHT22;13585;50.864;4.406;2023-08-17T22:47:48;27.70;57.50
25732;DHT22;13585;50.864;4.406;2023-08-17T22:50:14;27.70;57.50
25732;DHT22;13585;50.864;4.406;2023-08-17T22:52:39;27.70;57.50
25732;DHT22;13585;50.864;4.406;2023-08-17T22:55:05;27.70;57.50
25732;DHT22;13585;50.864;4.406;2023-08-17T22:57:30;27.70;57.50
25732;DHT22;13585;50.864;4.406;2023-08-17T22:59:56;27.70;57.50
25732;DHT22;13585;50.864;4.406;2023-08-17T23:02:21;27.70;57.50
25732;DHT22;13585;50.864;4.406;2023-08-17T23:04:47;27.70;57.40
25732;DHT22;13585;50.864;4.406;2023-08-17T23:07:12;27.70;57.40
25732;DHT22;13585;50.864;4.406;2023-08-17T23:09:38;27.70;57.40
25732;DHT22;13585;50.864;4.406;2023-08-17T23:12:04;27.70;57.40
25732;DHT22;13585;50.864;4.406;2023-08-17T23:14:30;27.70;57.40
25732;DHT22;13585;50.864;4.406;2023-08-17T23:16:55;27.70;57.40
25732;DHT22;13585;50.864;4.406;2023-08-17T23:19:21;27.70;57.40
25732;DHT22;13585;50.864;4.406;2023-08-17T23:21:46;27.70;57.40
25732;DHT22;13585;50.864;4.406;2023-08-17T23:24:12;27.70;57.50
25732;DHT22;13585;50.864;4.406;2023-08-17T23:26:38;27.70;57.50
25732;DHT22;13585;50.864;4.406;2023-08-17T23:29:03;27.70;57.50
25732;DHT22;13585;50.864;4.406;2023-08-17T23:31:29;27.70;57.50
25732;DHT22;13585;50.864;4.406;2023-08-17T23:33:55;27.70;57.50
25732;DHT22;13585;50.864;4.406;2023-08-17T23:36:20;27.70;57.50
25732;DHT22;13585;50.864;4.406;2023-08-17T23:38:46;27.70;57.50
25732;DHT22;13585;50.864;4.406;2023-08-17T23:41:11;27.70;57.50
25732;DHT22;13585;50.864;4.406;2023-08-17T23:43:37;27.70;57.50
25732;DHT22;13585;50.864;4.406;2023-08-17T23:46:02;27.70;57.50
25732;DHT22;13585;50.864;4.406;2023-08-17T23:48:28;27.70;57.50
25732;DHT22;13585;50.864;4.406;2023-08-17T23:50:54;27.70;57.50
25732;DHT22;13585;50.864;4.406;2023-08-17T23:53:19;27.70;57.60
25732;DHT22;13585;50.864;4.406;2023-08-17T23:55:45;27.80;57.60
25732;DHT22;13585;50.864;4.406;2023-08-17T23:58:10;27.70;57.50
